sensor_id;sensor_type;location;lat;lon;timestamp;temperature;humidity
74488;DHT22;63019;51.080;13.642;2024-01-15T00:00:56;1.80;99.90
74488;DHT22;63019;51.080;13.642;2024-01-15T00:01:58;1.80;99.90
74488;DHT22;63019;51.080;13.642;2024-01-15T00:03:00;1.80;99.90
74488;DHT22;63019;51.080;13.642;2024-01-15T00:04:02;1.80;99.90
74488;DHT22;63019;51.080;13.642;2024-01-15T00:05:05;1.80;99.90
74488;DHT22;63019;51.080;13.642;2024-01-15T00:06:10;1.80;99.90
74488;DHT22;63019;51.080;13.642;2024-01-15T00:07:13;1.80;99.90
74488;DHT22;63019;51.080;13.642;2024-01-15T00:08:15;1.80;99.90
74488;DHT22;63019;51.080;13.642;2024-01-15T00:09:17;1.70;99.90
74488;DHT22;63019;51.080;13.642;2024-01-15T00:10:19;1.70;99.90
74488;DHT22;63019;51.080;13.642;2024-01-15T00:11:21;1.70;99.90
74488;DHT22;63019;51.080;13.642;2024-01-15T00:12:23;1.70;99.90
74488;DHT22;63019;51.080;13.642;2024-01-15T00:13:25;1.70;99.90
74488;DHT22;63019;51.080;13.642;2024-01-15T00:14:27;1.70;99.90
74488;DHT22;63019;51.080;13.642;2024-01-15T00:15:29;1.70;99.90
74488;DHT22;63019;51.080;13.642;2024-01-15T00:16:32;1.70;99.90
74488;DHT22;63019;51.080;13.642;2024-01-15T00:17:34;1.70;99.90
74488;DHT22;63019;51.080;13.642;2024-01-15T00:18:36;1.70;99.90
74488;DHT22;63019;51.080;13.642;2024-01-15T00:19:39;1.70;99.90
74488;DHT22;63019;51.080;13.642;2024-01-15T00:20:41;1.70;99.90
74488;DHT22;63019;51.080;13.642;2024-01-15T00:21:43;1.70;99.90
74488;DHT22;63019;51.080;13.642;2024-01-15T00:22:45;1.70;99.90
74488;DHT22;63019;51.080;13.642;2024-01-15T00:23:47;1.70;99.90
74488;DHT22;63019;51.080;13.642;2024-01-15T00:24:49;1.70;99.90
74488;DHT22;63019;51.080;13.642;2024-01-15T00:25:52;1.70;99.90
74488;DHT22;63019;51.080;13.642;2024-01-15T00:26:54;1.70;99.90
74488;DHT22;63019;51.080;13.642;2024-01-15T00:27:55;1.70;99.90
74488;DHT22;63019;51.080;13.642;2024-01-15T00:28:57;1.70;99.90
74488;DHT22;63019;51.080;13.642;2024-01-15T00:30:00;1.60;99.90
74488;DHT22;63019;51.080;13.642;2024-01-15T00:31:02;1.70;99.90
74488;DHT22;63019;51.080;13.642;2024-01-15T00:32:04;1.70;99.90
74488;DHT22;63019;51.080;13.642;2024-01-15T00:33:07;1.60;99.90
74488;DHT22;63019;51.080;13.642;2024-01-15T00:34:09;1.60;99.90
74488;DHT22;63019;51.080;13.642;2024-01-15T00:35:12;1.60;99.90
74488;DHT22;63019;51.080;13.642;2024-01-15T00:36:14;1.70;99.90
74488;DHT22;63019;51.080;13.642;2024-01-15T00:37:18;1.70;99.90
74488;DHT22;63019;51.080;13.642;2024-01-15T00:38:20;1.70;99.90
74488;DHT22;63019;51.080;13.642;2024-01-15T00:39:22;1.70;99.90
74488;DHT22;63019;51.080;13.642;2024-01-15T00:40:25;1.70;99.90
74488;DHT22;63019;51.080;13.642;2024-01-15T00:41:27;1.70;99.90
74488;DHT22;63019;51.080;13.642;2024-01-15T00:42:29;1.70;99.90
74488;DHT22;63019;51.080;13.642;2024-01-15T00:43:31;1.70;99.90
74488;DHT22;63019;51.080;13.642;2024-01-15T00:44:33;1.70;99.90
74488;DHT22;63019;51.080;13.642;2024-01-15T00:45:35;1.60;99.90
74488;DHT22;63019;51.080;13.642;2024-01-15T00:46:44;1.60;99.90
74488;DHT22;63019;51.080;13.642;2024-01-15T00:47:47;1.60;99.90
74488;DHT22;63019;51.080;13.642;2024-01-15T00:48:49;1.70;99.90
74488;DHT22;63019;51.080;13.642;2024-01-15T00:49:51;1.60;99.90
74488;DHT22;63019;51.080;13.642;2024-01-15T00:50:53;1.60;99.90
74488;DHT22;63019;51.080;13.642;2024-01-15T00:51:56;1.60;99.90
74488;DHT22;63019;51.080;13.642;2024-01-15T00:52:58;1.60;99.90
74488;DHT22;63019;51.080;13.642;2024-01-15T00:54:01;1.60;99.90
74488;DHT22;63019;51.080;13.642;2024-01-15T00:55:04;1.60;99.90
74488;DHT22;63019;51.080;13.642;2024-01-15T00:56:06;1.60;99.90
74488;DHT22;63019;51.080;13.642;2024-01-15T00:57:08;1.60;99.90
74488;DHT22;63019;51.080;13.642;2024-01-15T00:58:10;1.60;99.90
74488;DHT22;63019;51.080;13.642;2024-01-15T00:59:11;1.60;99.90
74488;DHT22;63019;51.080;13.642;2024-01-15T01:00:16;1.60;99.90
74488;DHT22;63019;51.080;13.642;2024-01-15T01:01:18;1.60;99.90
74488;DHT22;63019;51.080;13.642;2024-01-15T01:02:21;1.60;99.90
74488;DHT22;63019;51.080;13.642;2024-01-15T01:03:22;1.70;99.90
74488;DHT22;63019;51.080;13.642;2024-01-15T01:04:24;1.70;99.90
74488;DHT22;63019;51.080;13.642;2024-01-15T01:05:26;1.70;99.90
74488;DHT22;63019;51.080;13.642;2024-01-15T01:06:28;1.60;99.90
74488;DHT22;63019;51.080;13.642;2024-01-15T01:07:34;1.60;99.90
74488;DHT22;63019;51.080;13.642;2024-01-15T01:08:38;1.60;99.90
74488;DHT22;63019;51.080;13.642;2024-01-15T01:09:45;1.70;99.90
74488;DHT22;63019;51.080;13.642;2024-01-15T01:10:52;1.60;99.90
74488;DHT22;63019;51.080;13.642;2024-01-15T01:11:54;1.60;99.90
74488;DHT22;63019;51.080;13.642;2024-01-15T01:12:56;1.60;99.90
74488;DHT22;63019;51.080;13.642;2024-01-15T01:13:58;1.60;99.90
74488;DHT22;63019;51.080;13.642;2024-01-15T01:15:00;1.60;99.90
74488;DHT22;63019;51.080;13.642;2024-01-15T01:16:02;1.50;99.90
74488;DHT22;63019;51.080;13.642;2024-01-15T01:17:05;1.60;99.90
74488;DHT22;63019;51.080;13.642;2024-01-15T01:18:06;1.50;99.90
74488;DHT22;63019;51.080;13.642;2024-01-15T01:19:09;1.60;99.90
74488;DHT22;63019;51.080;13.642;2024-01-15T01:20:11;1.60;99.90
74488;DHT22;63019;51.080;13.642;2024-01-15T01:21:15;1.50;99.90
74488;DHT22;63019;51.080;13.642;2024-01-15T01:22:18;1.50;99.90
74488;DHT22;63019;51.080;13.642;2024-01-15T01:23:20;1.50;99.90
74488;DHT22;63019;51.080;13.642;2024-01-15T01:24:22;1.50;99.90
74488;DHT22;63019;51.080;13.642;2024-01-15T01:25:23;1.50;99.90
74488;DHT22;63019;51.080;13.642;2024-01-15T01:26:25;1.50;99.90
74488;DHT22;63019;51.080;13.642;2024-01-15T01:27:27;1.50;99.90
74488;DHT22;63019;51.080;13.642;2024-01-15T01:28:29;1.40;99.90
74488;DHT22;63019;51.080;13.642;2024-01-15T01:29:31;1.40;99.90
74488;DHT22;63019;51.080;13.642;2024-01-15T01:30:33;1.40;99.90
74488;DHT22;63019;51.080;13.642;2024-01-15T01:31:35;1.40;99.90
74488;DHT22;63019;51.080;13.642;2024-01-15T01:32:37;1.40;99.90
74488;DHT22;63019;51.080;13.642;2024-01-15T01:33:39;1.40;99.90
74488;DHT22;63019;51.080;13.642;2024-01-15T01:34:42;1.40;99.90
74488;DHT22;63019;51.080;13.642;2024-01-15T01:35:44;1.40;99.90
74488;DHT22;63019;51.080;13.642;2024-01-15T01:36:47;1.40;99.90
74488;DHT22;63019;51.080;13.642;2024-01-15T01:37:48;1.40;99.90
74488;DHT22;63019;51.080;13.642;2024-01-15T01:38:50;1.40;99.90
74488;DHT22;63019;51.080;13.642;2024-01-15T01:39:52;1.40;99.90
74488;DHT22;63019;51.080;13.642;2024-01-15T01:40:54;1.40;99.90
74488;DHT22;63019;51.080;13.642;2024-01-15T01:41:56;1.40;99.90
74488;DHT22;63019;51.080;13.642;2024-01-15T01:42:58;1.40;99.90
74488;DHT22;63019;51.080;13.642;2024-01-15T01:44:00;1.40;99.90
74488;DHT22;63019;51.080;13.642;2024-01-15T01:45:01;1.40;99.90
74488;DHT22;63019;51.080;13.642;2024-01-15T01:46:04;1.30;99.90
74488;DHT22;63019;51.080;13.642;2024-01-15T01:47:07;1.40;99.90
74488;DHT22;63019;51.080;13.642;2024-01-15T01:48:09;1.40;99.90
74488;DHT22;63019;51.080;13.642;2024-01-15T01:49:12;1.30;99.90
74488;DHT22;63019;51.080;13.642;2024-01-15T01:50:14;1.30;99.90
74488;DHT22;63019;51.080;13.642;2024-01-15T01:51:16;1.30;99.90
74488;DHT22;63019;51.080;13.642;2024-01-15T01:52:18;1.30;99.90
74488;DHT22;63019;51.080;13.642;2024-01-15T01:53:20;1.30;99.90
74488;DHT22;63019;51.080;13.642;2024-01-15T01:54:22;1.40;99.90
74488;DHT22;63019;51.080;13.642;2024-01-15T01:55:26;1.40;99.90
74488;DHT22;63019;51.080;13.642;2024-01-15T01:56:29;1.40;99.90
74488;DHT22;63019;51.080;13.642;2024-01-15T01:57:32;1.30;99.90
74488;DHT22;63019;51.080;13.642;2024-01-15T01:58:35;1.30;99.90
74488;DHT22;63019;51.080;13.642;2024-01-15T01:59:38;1.30;99.90
74488;DHT22;63019;51.080;13.642;2024-01-15T02:00:40;1.30;99.90
74488;DHT22;63019;51.080;13.642;2024-01-15T02:01:43;1.30;99.90
74488;DHT22;63019;51.080;13.642;2024-01-15T02:02:45;1.40;99.90
74488;DHT22;63019;51.080;13.642;2024-01-15T02:03:48;1.30;99.90
74488;DHT22;63019;51.080;13.642;2024-01-15T02:04:50;1.40;99.90
74488;DHT22;63019;51.080;13.642;2024-01-15T02:05:53;1.30;99.90
74488;DHT22;63019;51.080;13.642;2024-01-15T02:06:55;1.30;99.90
74488;DHT22;63019;51.080;13.642;2024-01-15T02:07:57;1.40;99.90
74488;DHT22;63019;51.080;13.642;2024-01-15T02:08:59;1.40;99.90
74488;DHT22;63019;51.080;13.642;2024-01-15T02:10:01;1.40;99.90
74488;DHT22;63019;51.080;13.642;2024-01-15T02:11:03;1.30;99.90
74488;DHT22;63019;51.080;13.642;2024-01-15T02:12:05;1.30;99.90
74488;DHT22;63019;51.080;13.642;2024-01-15T02:13:08;1.30;99.90
74488;DHT22;63019;51.080;13.642;2024-01-15T02:14:11;1.40;99.90
74488;DHT22;63019;51.080;13.642;2024-01-15T02:15:12;1.40;99.90
74488;DHT22;63019;51.080;13.642;2024-01-15T02:16:14;1.30;99.90
74488;DHT22;63019;51.080;13.642;2024-01-15T02:17:16;1.40;99.90
74488;DHT22;63019;51.080;13.642;2024-01-15T02:18:18;1.40;99.90
74488;DHT22;63019;51.080;13.642;2024-01-15T02:19:20;1.40;99.90
74488;DHT22;63019;51.080;13.642;2024-01-15T02:20:22;1.40;99.90
74488;DHT22;63019;51.080;13.642;2024-01-15T02:21:24;1.40;99.90
74488;DHT22;63019;51.080;13.642;2024-01-15T02:22:30;1.40;99.90
74488;DHT22;63019;51.080;13.642;2024-01-15T02:23:32;1.40;99.90
74488;DHT22;63019;51.080;13.642;2024-01-15T02:24:33;1.40;99.90
74488;DHT22;63019;51.080;13.642;2024-01-15T02:25:43;1.40;99.90
74488;DHT22;63019;51.080;13.642;2024-01-15T02:26:46;1.40;99.90
74488;DHT22;63019;51.080;13.642;2024-01-15T02:27:48;1.30;99.90
74488;DHT22;63019;51.080;13.642;2024-01-15T02:28:50;1.40;99.90
74488;DHT22;63019;51.080;13.642;2024-01-15T02:29:52;1.40;99.90
74488;DHT22;63019;51.080;13.642;2024-01-15T02:30:55;1.40;99.90
74488;DHT22;63019;51.080;13.642;2024-01-15T02:31:57;1.40;99.90
74488;DHT22;63019;51.080;13.642;2024-01-15T02:32:59;1.30;99.90
74488;DHT22;63019;51.080;13.642;2024-01-15T02:34:01;1.30;99.90
74488;DHT22;63019;51.080;13.642;2024-01-15T02:35:03;1.30;99.90
74488;DHT22;63019;51.080;13.642;2024-01-15T02:36:05;1.30;99.90
74488;DHT22;63019;51.080;13.642;2024-01-15T02:37:07;1.30;99.90
74488;DHT22;63019;51.080;13.642;2024-01-15T02:38:09;1.30;99.90
74488;DHT22;63019;51.080;13.642;2024-01-15T02:39:11;1.30;99.90
74488;DHT22;63019;51.080;13.642;2024-01-15T02:40:13;1.30;99.90
74488;DHT22;63019;51.080;13.642;2024-01-15T02:41:15;1.30;99.90
74488;DHT22;63019;51.080;13.642;2024-01-15T02:42:16;1.30;99.90
74488;DHT22;63019;51.080;13.642;2024-01-15T02:43:18;1.20;99.90
74488;DHT22;63019;51.080;13.642;2024-01-15T02:44:21;1.30;99.90
74488;DHT22;63019;51.080;13.642;2024-01-15T02:45:23;1.30;99.90
74488;DHT22;63019;51.080;13.642;2024-01-15T02:46:25;1.30;99.90
74488;DHT22;63019;51.080;13.642;2024-01-15T02:47:27;1.30;99.90
74488;DHT22;63019;51.080;13.642;2024-01-15T02:48:29;1.30;99.90
74488;DHT22;63019;51.080;13.642;2024-01-15T02:49:32;1.30;99.90
74488;DHT22;63019;51.080;13.642;2024-01-15T02:50:34;1.20;99.90
74488;DHT22;63019;51.080;13.642;2024-01-15T02:51:36;1.30;99.90
74488;DHT22;63019;51.080;13.642;2024-01-15T02:52:38;1.30;99.90
74488;DHT22;63019;51.080;13.642;2024-01-15T02:53:41;1.30;99.90
74488;DHT22;63019;51.080;13.642;2024-01-15T02:54:42;1.20;99.90
74488;DHT22;63019;51.080;13.642;2024-01-15T02:55:44;1.20;99.90
74488;DHT22;63019;51.080;13.642;2024-01-15T02:56:46;1.20;99.90
74488;DHT22;63019;51.080;13.642;2024-01-15T02:57:48;1.20;99.90
74488;DHT22;63019;51.080;13.642;2024-01-15T02:58:50;1.20;99.90
74488;DHT22;63019;51.080;13.642;2024-01-15T02:59:52;1.20;99.90
74488;DHT22;63019;51.080;13.642;2024-01-15T03:00:54;1.20;99.90
74488;DHT22;63019;51.080;13.642;2024-01-15T03:01:56;1.20;99.90
74488;DHT22;63019;51.080;13.642;2024-01-15T03:02:57;1.20;99.90
74488;DHT22;63019;51.080;13.642;2024-01-15T03:03:59;1.20;99.90
74488;DHT22;63019;51.080;13.642;2024-01-15T03:05:01;1.20;99.90
74488;DHT22;63019;51.080;13.642;2024-01-15T03:06:03;1.20;99.90
74488;DHT22;63019;51.080;13.642;2024-01-15T03:07:06;1.20;99.90
74488;DHT22;63019;51.080;13.642;2024-01-15T03:08:08;1.10;99.90
74488;DHT22;63019;51.080;13.642;2024-01-15T03:09:09;1.20;99.90
74488;DHT22;63019;51.080;13.642;2024-01-15T03:10:11;1.20;99.90
74488;DHT22;63019;51.080;13.642;2024-01-15T03:11:13;1.20;99.90
74488;DHT22;63019;51.080;13.642;2024-01-15T03:12:15;1.20;99.90
74488;DHT22;63019;51.080;13.642;2024-01-15T03:13:18;1.20;99.90
74488;DHT22;63019;51.080;13.642;2024-01-15T03:14:21;1.20;99.90
74488;DHT22;63019;51.080;13.642;2024-01-15T03:15:23;1.20;99.90
74488;DHT22;63019;51.080;13.642;2024-01-15T03:16:24;1.20;99.90
74488;DHT22;63019;51.080;13.642;2024-01-15T03:17:26;1.20;99.90
74488;DHT22;63019;51.080;13.642;2024-01-15T03:18:28;1.10;99.90
74488;DHT22;63019;51.080;13.642;2024-01-15T03:19:30;1.10;99.90
74488;DHT22;63019;51.080;13.642;2024-01-15T03:20:32;1.10;99.90
74488;DHT22;63019;51.080;13.642;2024-01-15T03:21:34;1.10;99.90
74488;DHT22;63019;51.080;13.642;2024-01-15T03:22:36;1.10;99.90
74488;DHT22;63019;51.080;13.642;2024-01-15T03:23:38;1.10;99.90
74488;DHT22;63019;51.080;13.642;2024-01-15T03:24:40;1.10;99.90
74488;DHT22;63019;51.080;13.642;2024-01-15T03:25:42;1.10;99.90
74488;DHT22;63019;51.080;13.642;2024-01-15T03:26:44;1.10;99.90
74488;DHT22;63019;51.080;13.642;2024-01-15T03:27:45;1.10;99.90
74488;DHT22;63019;51.080;13.642;2024-01-15T03:28:47;1.10;99.90
74488;DHT22;63019;51.080;13.642;2024-01-15T03:29:49;1.10;99.90
74488;DHT22;63019;51.080;13.642;2024-01-15T03:30:51;1.10;99.90
74488;DHT22;63019;51.080;13.642;2024-01-15T03:31:53;1.10;99.90
74488;DHT22;63019;51.080;13.642;2024-01-15T03:32:55;1.10;99.90
74488;DHT22;63019;51.080;13.642;2024-01-15T03:33:58;1.00;99.90
74488;DHT22;63019;51.080;13.642;2024-01-15T03:35:00;1.10;99.90
74488;DHT22;63019;51.080;13.642;2024-01-15T03:36:02;1.00;99.90
74488;DHT22;63019;51.080;13.642;2024-01-15T03:37:04;1.00;99.90
74488;DHT22;63019;51.080;13.642;2024-01-15T03:38:06;1.00;99.90
74488;DHT22;63019;51.080;13.642;2024-01-15T03:39:08;1.00;99.90
74488;DHT22;63019;51.080;13.642;2024-01-15T03:40:11;1.00;99.90
74488;DHT22;63019;51.080;13.642;2024-01-15T03:41:13;1.00;99.90
74488;DHT22;63019;51.080;13.642;2024-01-15T03:42:15;1.00;99.90
74488;DHT22;63019;51.080;13.642;2024-01-15T03:43:17;1.00;99.90
74488;DHT22;63019;51.080;13.642;2024-01-15T03:44:19;1.00;99.90
74488;DHT22;63019;51.080;13.642;2024-01-15T03:45:21;1.00;99.90
74488;DHT22;63019;51.080;13.642;2024-01-15T03:46:23;1.00;99.90
74488;DHT22;63019;51.080;13.642;2024-01-15T03:47:25;1.00;99.90
74488;DHT22;63019;51.080;13.642;2024-01-15T03:48:27;1.00;99.90
74488;DHT22;63019;51.080;13.642;2024-01-15T03:49:29;1.00;99.90
74488;DHT22;63019;51.080;13.642;2024-01-15T03:50:32;1.00;99.90
74488;DHT22;63019;51.080;13.642;2024-01-15T03:51:33;1.00;99.90
74488;DHT22;63019;51.080;13.642;2024-01-15T03:52:35;1.00;99.90
74488;DHT22;63019;51.080;13.642;2024-01-15T03:53:38;0.90;99.90
74488;DHT22;63019;51.080;13.642;2024-01-15T03:54:40;0.90;99.90
74488;DHT22;63019;51.080;13.642;2024-01-15T03:55:42;0.90;99.90
74488;DHT22;63019;51.080;13.642;2024-01-15T03:56:44;0.90;99.90
74488;DHT22;63019;51.080;13.642;2024-01-15T03:57:46;0.90;99.90
74488;DHT22;63019;51.080;13.642;2024-01-15T03:58:48;0.90;99.90
74488;DHT22;63019;51.080;13.642;2024-01-15T03:59:50;0.80;99.90
74488;DHT22;63019;51.080;13.642;2024-01-15T04:00:52;0.80;99.90
74488;DHT22;63019;51.080;13.642;2024-01-15T04:01:54;0.80;99.90
74488;DHT22;63019;51.080;13.642;2024-01-15T04:02:56;0.80;99.90
74488;DHT22;63019;51.080;13.642;2024-01-15T04:03:58;0.80;99.90
74488;DHT22;63019;51.080;13.642;2024-01-15T04:04:59;0.80;99.90
74488;DHT22;63019;51.080;13.642;2024-01-15T04:06:02;0.80;99.90
74488;DHT22;63019;51.080;13.642;2024-01-15T04:07:04;0.70;99.90
74488;DHT22;63019;51.080;13.642;2024-01-15T04:08:05;0.80;99.90
74488;DHT22;63019;51.080;13.642;2024-01-15T04:09:08;0.70;99.90
74488;DHT22;63019;51.080;13.642;2024-01-15T04:10:10;0.70;99.90
74488;DHT22;63019;51.080;13.642;2024-01-15T04:11:11;0.70;99.90
74488;DHT22;63019;51.080;13.642;2024-01-15T04:12:13;0.70;99.90
74488;DHT22;63019;51.080;13.642;2024-01-15T04:13:15;0.70;99.90
74488;DHT22;63019;51.080;13.642;2024-01-15T04:14:17;0.70;99.90
74488;DHT22;63019;51.080;13.642;2024-01-15T04:15:19;0.70;99.90
74488;DHT22;63019;51.080;13.642;2024-01-15T04:16:21;0.70;99.90
74488;DHT22;63019;51.080;13.642;2024-01-15T04:17:22;0.70;99.90
74488;DHT22;63019;51.080;13.642;2024-01-15T04:18:24;0.70;99.90
74488;DHT22;63019;51.080;13.642;2024-01-15T04:19:26;0.70;99.90
74488;DHT22;63019;51.080;13.642;2024-01-15T04:20:28;0.70;99.90
74488;DHT22;63019;51.080;13.642;2024-01-15T04:21:30;0.70;99.90
74488;DHT22;63019;51.080;13.642;2024-01-15T04:22:34;0.70;99.90
74488;DHT22;63019;51.080;13.642;2024-01-15T04:23:35;0.70;99.90
74488;DHT22;63019;51.080;13.642;2024-01-15T04:24:37;0.70;99.90
74488;DHT22;63019;51.080;13.642;2024-01-15T04:25:39;0.70;99.90
74488;DHT22;63019;51.080;13.642;2024-01-15T04:26:45;0.70;99.90
74488;DHT22;63019;51.080;13.642;2024-01-15T04:27:47;0.70;99.90
74488;DHT22;63019;51.080;13.642;2024-01-15T04:28:49;0.70;99.90
74488;DHT22;63019;51.080;13.642;2024-01-15T04:29:51;0.70;99.90
74488;DHT22;63019;51.080;13.642;2024-01-15T04:30:53;0.80;99.90
74488;DHT22;63019;51.080;13.642;2024-01-15T04:31:55;0.80;99.90
74488;DHT22;63019;51.080;13.642;2024-01-15T04:32:57;0.80;99.90
74488;DHT22;63019;51.080;13.642;2024-01-15T04:33:59;0.80;99.90
74488;DHT22;63019;51.080;13.642;2024-01-15T04:35:01;0.80;99.90
74488;DHT22;63019;51.080;13.642;2024-01-15T04:36:04;0.80;99.90
74488;DHT22;63019;51.080;13.642;2024-01-15T04:37:07;0.80;99.90
74488;DHT22;63019;51.080;13.642;2024-01-15T04:38:09;0.80;99.90
74488;DHT22;63019;51.080;13.642;2024-01-15T04:39:10;0.80;99.90
74488;DHT22;63019;51.080;13.642;2024-01-15T04:40:13;0.90;99.90
74488;DHT22;63019;51.080;13.642;2024-01-15T04:41:16;0.80;99.90
74488;DHT22;63019;51.080;13.642;2024-01-15T04:42:18;0.80;99.90
74488;DHT22;63019;51.080;13.642;2024-01-15T04:43:20;0.80;99.90
74488;DHT22;63019;51.080;13.642;2024-01-15T04:44:22;0.80;99.90
74488;DHT22;63019;51.080;13.642;2024-01-15T04:45:24;0.80;99.90
74488;DHT22;63019;51.080;13.642;2024-01-15T04:46:30;0.80;99.90
74488;DHT22;63019;51.080;13.642;2024-01-15T04:47:32;0.80;99.90
74488;DHT22;63019;51.080;13.642;2024-01-15T04:48:34;0.70;99.90
74488;DHT22;63019;51.080;13.642;2024-01-15T04:49:36;0.80;99.90
74488;DHT22;63019;51.080;13.642;2024-01-15T04:50:38;0.80;99.90
74488;DHT22;63019;51.080;13.642;2024-01-15T04:51:39;0.80;99.90
74488;DHT22;63019;51.080;13.642;2024-01-15T04:52:41;0.80;99.90
74488;DHT22;63019;51.080;13.642;2024-01-15T04:53:44;0.80;99.90
74488;DHT22;63019;51.080;13.642;2024-01-15T04:54:45;0.70;99.90
74488;DHT22;63019;51.080;13.642;2024-01-15T04:55:48;0.70;99.90
74488;DHT22;63019;51.080;13.642;2024-01-15T04:56:49;0.70;99.90
74488;DHT22;63019;51.080;13.642;2024-01-15T04:57:51;0.70;99.90
74488;DHT22;63019;51.080;13.642;2024-01-15T04:58:53;0.70;99.90
74488;DHT22;63019;51.080;13.642;2024-01-15T04:59:55;0.70;99.90
74488;DHT22;63019;51.080;13.642;2024-01-15T05:00:57;0.70;99.90
74488;DHT22;63019;51.080;13.642;2024-01-15T05:01:59;0.60;99.90
74488;DHT22;63019;51.080;13.642;2024-01-15T05:03:01;0.70;99.90
74488;DHT22;63019;51.080;13.642;2024-01-15T05:04:03;0.60;99.90
74488;DHT22;63019;51.080;13.642;2024-01-15T05:05:05;0.60;99.90
74488;DHT22;63019;51.080;13.642;2024-01-15T05:06:07;0.60;99.90
74488;DHT22;63019;51.080;13.642;2024-01-15T05:07:09;0.60;99.90
74488;DHT22;63019;51.080;13.642;2024-01-15T05:08:11;0.60;99.90
74488;DHT22;63019;51.080;13.642;2024-01-15T05:09:13;0.60;99.90
74488;DHT22;63019;51.080;13.642;2024-01-15T05:10:15;0.60;99.90
74488;DHT22;63019;51.080;13.642;2024-01-15T05:11:16;0.60;99.90
74488;DHT22;63019;51.080;13.642;2024-01-15T05:12:19;0.60;99.90
74488;DHT22;63019;51.080;13.642;2024-01-15T05:13:20;0.50;99.90
74488;DHT22;63019;51.080;13.642;2024-01-15T05:14:22;0.50;99.90
74488;DHT22;63019;51.080;13.642;2024-01-15T05:15:24;0.50;99.90
74488;DHT22;63019;51.080;13.642;2024-01-15T05:16:26;0.50;99.90
74488;DHT22;63019;51.080;13.642;2024-01-15T05:17:28;0.50;99.90
74488;DHT22;63019;51.080;13.642;2024-01-15T05:18:30;0.50;99.90
74488;DHT22;63019;51.080;13.642;2024-01-15T05:19:32;0.50;99.90
74488;DHT22;63019;51.080;13.642;2024-01-15T05:20:34;0.50;99.90
74488;DHT22;63019;51.080;13.642;2024-01-15T05:21:36;0.60;99.90
74488;DHT22;63019;51.080;13.642;2024-01-15T05:22:38;0.60;99.90
74488;DHT22;63019;51.080;13.642;2024-01-15T05:23:40;0.60;99.90
74488;DHT22;63019;51.080;13.642;2024-01-15T05:24:42;0.60;99.90
74488;DHT22;63019;51.080;13.642;2024-01-15T05:25:43;0.60;99.90
74488;DHT22;63019;51.080;13.642;2024-01-15T05:26:45;0.60;99.90
74488;DHT22;63019;51.080;13.642;2024-01-15T05:27:47;0.60;99.90
74488;DHT22;63019;51.080;13.642;2024-01-15T05:28:49;0.60;99.90
74488;DHT22;63019;51.080;13.642;2024-01-15T05:29:51;0.70;99.90
74488;DHT22;63019;51.080;13.642;2024-01-15T05:30:53;0.60;99.90
74488;DHT22;63019;51.080;13.642;2024-01-15T05:31:56;0.60;99.90
74488;DHT22;63019;51.080;13.642;2024-01-15T05:33:02;0.60;99.90
74488;DHT22;63019;51.080;13.642;2024-01-15T05:34:04;0.60;99.90
74488;DHT22;63019;51.080;13.642;2024-01-15T05:35:07;0.60;99.90
74488;DHT22;63019;51.080;13.642;2024-01-15T05:36:08;0.60;99.90
74488;DHT22;63019;51.080;13.642;2024-01-15T05:37:10;0.60;99.90
74488;DHT22;63019;51.080;13.642;2024-01-15T05:38:12;0.60;99.90
74488;DHT22;63019;51.080;13.642;2024-01-15T05:39:14;0.60;99.90
74488;DHT22;63019;51.080;13.642;2024-01-15T05:40:16;0.60;99.90
74488;DHT22;63019;51.080;13.642;2024-01-15T05:41:18;0.60;99.90
74488;DHT22;63019;51.080;13.642;2024-01-15T05:42:19;0.60;99.90
74488;DHT22;63019;51.080;13.642;2024-01-15T05:43:21;0.60;99.90
74488;DHT22;63019;51.080;13.642;2024-01-15T05:44:23;0.60;99.90
74488;DHT22;63019;51.080;13.642;2024-01-15T05:45:29;0.60;99.90
74488;DHT22;63019;51.080;13.642;2024-01-15T05:46:31;0.60;99.90
74488;DHT22;63019;51.080;13.642;2024-01-15T05:47:33;0.70;99.90
74488;DHT22;63019;51.080;13.642;2024-01-15T05:48:35;0.70;99.90
74488;DHT22;63019;51.080;13.642;2024-01-15T05:49:36;0.70;99.90
74488;DHT22;63019;51.080;13.642;2024-01-15T05:50:39;0.70;99.90
74488;DHT22;63019;51.080;13.642;2024-01-15T05:51:40;0.70;99.90
74488;DHT22;63019;51.080;13.642;2024-01-15T05:52:42;0.70;99.90
74488;DHT22;63019;51.080;13.642;2024-01-15T05:53:44;0.70;99.90
74488;DHT22;63019;51.080;13.642;2024-01-15T05:54:48;0.70;99.90
74488;DHT22;63019;51.080;13.642;2024-01-15T05:55:50;0.70;99.90
74488;DHT22;63019;51.080;13.642;2024-01-15T05:56:51;0.70;99.90
74488;DHT22;63019;51.080;13.642;2024-01-15T05:57:53;0.70;99.90
74488;DHT22;63019;51.080;13.642;2024-01-15T05:58:55;0.70;99.90
74488;DHT22;63019;51.080;13.642;2024-01-15T05:59:57;0.60;99.90
74488;DHT22;63019;51.080;13.642;2024-01-15T06:00:59;0.70;99.90
74488;DHT22;63019;51.080;13.642;2024-01-15T06:02:01;0.70;99.90
74488;DHT22;63019;51.080;13.642;2024-01-15T06:03:03;0.70;99.90
74488;DHT22;63019;51.080;13.642;2024-01-15T06:04:05;0.70;99.90
74488;DHT22;63019;51.080;13.642;2024-01-15T06:05:08;0.70;99.90
74488;DHT22;63019;51.080;13.642;2024-01-15T06:06:10;0.70;99.90
74488;DHT22;63019;51.080;13.642;2024-01-15T06:07:12;0.70;99.90
74488;DHT22;63019;51.080;13.642;2024-01-15T06:08:14;0.70;99.90
74488;DHT22;63019;51.080;13.642;2024-01-15T06:09:16;0.70;99.90
74488;DHT22;63019;51.080;13.642;2024-01-15T06:10:18;0.70;99.90
74488;DHT22;63019;51.080;13.642;2024-01-15T06:11:20;0.70;99.90
74488;DHT22;63019;51.080;13.642;2024-01-15T06:12:22;0.70;99.90
74488;DHT22;63019;51.080;13.642;2024-01-15T06:13:24;0.70;99.90
74488;DHT22;63019;51.080;13.642;2024-01-15T06:14:26;0.70;99.90
74488;DHT22;63019;51.080;13.642;2024-01-15T06:15:28;0.70;99.90
74488;DHT22;63019;51.080;13.642;2024-01-15T06:16:29;0.80;99.90
74488;DHT22;63019;51.080;13.642;2024-01-15T06:17:31;0.80;99.90
74488;DHT22;63019;51.080;13.642;2024-01-15T06:18:33;0.80;99.90
74488;DHT22;63019;51.080;13.642;2024-01-15T06:19:35;0.80;99.90
74488;DHT22;63019;51.080;13.642;2024-01-15T06:20:38;0.80;99.90
74488;DHT22;63019;51.080;13.642;2024-01-15T06:21:40;0.80;99.90
74488;DHT22;63019;51.080;13.642;2024-01-15T06:22:42;0.80;99.90
74488;DHT22;63019;51.080;13.642;2024-01-15T06:23:44;0.80;99.90
74488;DHT22;63019;51.080;13.642;2024-01-15T06:24:47;0.80;99.90
74488;DHT22;63019;51.080;13.642;2024-01-15T06:25:49;0.80;99.90
74488;DHT22;63019;51.080;13.642;2024-01-15T06:26:50;0.80;99.90
74488;DHT22;63019;51.080;13.642;2024-01-15T06:27:52;0.80;99.90
74488;DHT22;63019;51.080;13.642;2024-01-15T06:28:54;0.70;99.90
74488;DHT22;63019;51.080;13.642;2024-01-15T06:29:56;0.70;99.90
74488;DHT22;63019;51.080;13.642;2024-01-15T06:30:58;0.70;99.90
74488;DHT22;63019;51.080;13.642;2024-01-15T06:32:00;0.70;99.90
74488;DHT22;63019;51.080;13.642;2024-01-15T06:33:02;0.70;99.90